KRHV/RHV METAR and TAF weather

Enter ICAO airport designator
Station Type Date Time Source
KRHV METAR 2019/10/15 17:55 UTC NOAA

KRHV 151755Z 00000KT 6SM HZ SCT080 14/10 A3013


Station Type Date Time Source
KRHV Decoded METAR 2019/10/15 17:55 UTC NOAA

San Jose / Reid / Hillv, CA, United States (KRHV) 37-20N 121-49W
Oct 15, 2019 - 01:55 PM EDT / 2019.10.15 1755 UTC
Wind: Calm:0
Visibility: 6 mile(s):0
Sky conditions: partly cloudy
Weather: haze
Temperature: 57 F (14 C)
Dew Point: 50 F (10 C)
Relative Humidity: 76%
Pressure (altimeter): 30.13 in. Hg (1020 hPa)
ob: KRHV 151755Z 00000KT 6SM HZ SCT080 14/10 A3013
cycle: 18

Station Type Date Time Source
KRHV TAF UTC NOAA

Error!

Example: see airport list